createdAt,value
2023-09-19T00:00:43.381Z,10.90
2023-09-19T00:03:11.311Z,10.50
2023-09-19T00:05:46.473Z,10.40
2023-09-19T00:08:17.238Z,12.00
2023-09-19T00:10:45.211Z,10.90
2023-09-19T00:13:16.859Z,11.30
2023-09-19T00:15:50.786Z,11.40
2023-09-19T00:18:23.882Z,11.30
2023-09-19T00:20:53.448Z,10.60
2023-09-19T00:23:22.261Z,11.00
2023-09-19T00:25:50.259Z,11.00
2023-09-19T00:28:19.770Z,11.30
2023-09-19T00:30:51.538Z,10.70
2023-09-19T00:33:20.686Z,11.30
2023-09-19T00:35:49.196Z,10.60
2023-09-19T00:38:22.436Z,11.50
2023-09-19T00:40:50.258Z,10.90
2023-09-19T00:43:17.922Z,10.80
2023-09-19T00:45:49.578Z,10.10
2023-09-19T00:48:18.605Z,10.70
2023-09-19T00:50:49.007Z,10.80
2023-09-19T00:53:21.899Z,10.30
2023-09-19T00:55:49.751Z,10.10
2023-09-19T00:58:19.020Z,10.40
2023-09-19T01:00:46.613Z,10.30
2023-09-19T01:03:15.004Z,10.80
2023-09-19T01:05:43.642Z,10.20
2023-09-19T01:08:12.898Z,10.20
2023-09-19T01:10:45.618Z,10.30
2023-09-19T01:13:33.283Z,10.20
2023-09-19T01:16:13.856Z,10.20
2023-09-19T01:18:50.339Z,10.20
2023-09-19T01:21:20.950Z,10.30
2023-09-19T01:23:57.569Z,9.70
2023-09-19T01:26:51.895Z,9.80
2023-09-19T01:29:40.453Z,10.30
2023-09-19T01:32:09.308Z,10.80
2023-09-19T01:34:50.104Z,10.80
2023-09-19T01:37:21.045Z,10.90
2023-09-19T01:39:49.863Z,11.00
2023-09-19T01:42:20.925Z,9.90
2023-09-19T01:44:48.937Z,10.80
2023-09-19T01:47:39.597Z,9.70
2023-09-19T01:50:24.612Z,9.60
2023-09-19T01:53:05.836Z,10.30
2023-09-19T01:55:37.973Z,11.30
2023-09-19T02:00:46.592Z,11.60
2023-09-19T02:03:15.241Z,10.70
2023-09-19T02:05:45.780Z,9.70
2023-09-19T02:08:13.110Z,10.70
2023-09-19T02:10:42.585Z,11.00
2023-09-19T02:13:10.233Z,9.80
2023-09-19T02:15:38.335Z,10.20
2023-09-19T02:18:07.018Z,10.20
2023-09-19T02:20:34.576Z,10.40
2023-09-19T02:23:02.171Z,11.10
2023-09-19T02:25:29.582Z,10.60
2023-09-19T02:27:59.788Z,10.30
2023-09-19T02:30:27.337Z,10.00
2023-09-19T02:32:55.942Z,10.80
2023-09-19T02:35:23.577Z,10.10
2023-09-19T02:37:51.798Z,10.20
2023-09-19T02:40:27.181Z,10.20
2023-09-19T02:42:55.369Z,10.00
2023-09-19T02:45:24.913Z,10.30
2023-09-19T02:47:52.616Z,10.00
2023-09-19T02:50:20.172Z,10.50
2023-09-19T02:52:50.970Z,10.80
2023-09-19T02:55:21.114Z,10.60
2023-09-19T02:57:57.977Z,10.20
2023-09-19T03:00:25.556Z,10.60
2023-09-19T03:02:55.606Z,10.30
2023-09-19T03:05:24.643Z,9.90
2023-09-19T03:07:52.695Z,10.50
2023-09-19T03:10:21.528Z,10.40
2023-09-19T03:12:49.137Z,11.10
2023-09-19T03:15:16.833Z,10.00
2023-09-19T03:17:51.314Z,10.20
2023-09-19T03:20:22.599Z,10.00
2023-09-19T03:22:50.859Z,10.50
2023-09-19T03:25:18.927Z,10.40
2023-09-19T03:27:50.528Z,9.30
2023-09-19T03:30:18.542Z,10.60
2023-09-19T03:32:51.633Z,10.10
2023-09-19T03:37:47.184Z,9.60
2023-09-19T03:40:15.465Z,10.70
2023-09-19T03:42:43.164Z,9.80
2023-09-19T03:45:14.357Z,10.90
2023-09-19T03:47:49.197Z,10.40
2023-09-19T03:50:18.920Z,10.60
2023-09-19T03:52:46.841Z,10.40
2023-09-19T03:55:14.667Z,10.90
2023-09-19T03:57:42.156Z,11.10
2023-09-19T04:00:13.310Z,10.30
2023-09-19T04:02:42.485Z,10.50
2023-09-19T04:05:10.677Z,10.10
2023-09-19T04:07:38.107Z,9.90
2023-09-19T04:10:06.154Z,10.50
2023-09-19T04:12:33.632Z,10.60
2023-09-19T04:15:02.235Z,11.10
2023-09-19T04:17:29.817Z,10.90
2023-09-19T04:19:57.401Z,10.50
2023-09-19T04:22:24.756Z,11.40
2023-09-19T04:24:52.222Z,12.10
2023-09-19T04:27:20.057Z,11.90
2023-09-19T04:29:47.420Z,10.90
2023-09-19T04:32:14.768Z,11.10
2023-09-19T04:34:42.145Z,11.20
2023-09-19T04:37:09.721Z,11.90
2023-09-19T04:39:37.149Z,11.40
2023-09-19T04:42:05.921Z,11.10
2023-09-19T04:44:33.209Z,12.40
2023-09-19T04:47:00.872Z,11.90
2023-09-19T04:49:28.474Z,12.20
2023-09-19T04:51:56.892Z,11.10
2023-09-19T04:54:24.291Z,11.10
2023-09-19T04:56:51.725Z,11.80
2023-09-19T04:59:19.068Z,11.90
2023-09-19T05:01:46.524Z,12.50
2023-09-19T05:04:14.477Z,11.70
2023-09-19T05:06:43.480Z,12.10
2023-09-19T05:09:12.582Z,11.50
2023-09-19T05:11:40.206Z,12.10
2023-09-19T05:14:07.625Z,10.80
2023-09-19T05:16:35.787Z,12.10
2023-09-19T05:19:03.318Z,11.60
2023-09-19T05:21:32.229Z,11.20
2023-09-19T05:23:59.631Z,10.90
2023-09-19T05:26:26.940Z,11.20
2023-09-19T05:28:54.367Z,11.20
2023-09-19T05:31:21.984Z,11.00
2023-09-19T05:33:49.570Z,11.80
2023-09-19T05:36:17.135Z,11.50
2023-09-19T05:38:45.812Z,12.20
2023-09-19T05:41:15.127Z,13.80
2023-09-19T05:43:43.119Z,12.10
2023-09-19T05:46:11.164Z,11.00
2023-09-19T05:48:40.879Z,11.00
2023-09-19T05:51:08.261Z,11.10
2023-09-19T05:53:35.880Z,11.20
2023-09-19T05:56:03.845Z,11.10
2023-09-19T05:58:31.254Z,10.30
2023-09-19T06:00:58.819Z,11.80
2023-09-19T06:03:27.535Z,11.80
2023-09-19T06:05:58.561Z,10.90
2023-09-19T06:08:27.598Z,12.20
2023-09-19T06:10:55.297Z,10.20
2023-09-19T06:13:23.177Z,10.80
2023-09-19T06:15:51.096Z,10.50
2023-09-19T06:18:21.194Z,11.00
2023-09-19T06:20:49.817Z,10.10
2023-09-19T06:23:17.679Z,11.20
2023-09-19T06:25:45.043Z,9.80
2023-09-19T06:28:18.223Z,9.80
2023-09-19T06:30:45.727Z,10.80
2023-09-19T06:33:15.472Z,11.00
2023-09-19T06:35:46.010Z,10.30
2023-09-19T06:38:14.411Z,9.50
2023-09-19T06:40:43.859Z,10.60
2023-09-19T06:43:11.791Z,10.40
2023-09-19T06:45:39.213Z,9.80
2023-09-19T06:48:06.896Z,9.40
2023-09-19T06:50:35.963Z,9.20
2023-09-19T06:53:03.760Z,8.70
2023-09-19T06:55:33.258Z,8.40
2023-09-19T06:58:01.803Z,9.60
2023-09-19T07:00:29.789Z,9.40
2023-09-19T07:02:58.872Z,8.10
2023-09-19T07:05:26.935Z,8.80
2023-09-19T07:07:56.718Z,10.20
2023-09-19T07:10:25.586Z,9.20
2023-09-19T07:12:57.842Z,9.40
2023-09-19T07:15:26.431Z,9.60
2023-09-19T07:17:55.496Z,8.80
2023-09-19T07:20:23.675Z,8.80
2023-09-19T07:22:52.427Z,8.70
2023-09-19T07:25:20.206Z,8.60
2023-09-19T07:27:48.265Z,9.10
2023-09-19T07:30:17.291Z,8.50
2023-09-19T07:32:48.265Z,9.00
2023-09-19T07:35:16.529Z,8.20
2023-09-19T07:37:44.023Z,8.40
2023-09-19T07:40:12.874Z,8.10
2023-09-19T07:42:42.346Z,8.30
2023-09-19T07:45:10.445Z,8.40
2023-09-19T07:47:38.329Z,8.40
2023-09-19T07:50:08.917Z,8.50
2023-09-19T07:52:36.811Z,8.10
2023-09-19T07:55:10.420Z,7.90
2023-09-19T07:57:38.928Z,7.90
2023-09-19T08:00:08.250Z,7.10
2023-09-19T08:02:42.895Z,7.70
2023-09-19T08:05:11.549Z,8.60
2023-09-19T08:07:40.341Z,8.10
2023-09-19T08:10:14.945Z,7.70
2023-09-19T08:12:57.407Z,8.00
2023-09-19T08:15:25.160Z,6.70
2023-09-19T08:17:52.895Z,7.70
2023-09-19T08:20:20.878Z,6.10
2023-09-19T08:22:56.407Z,6.80
2023-09-19T08:25:24.739Z,7.10
2023-09-19T08:27:52.723Z,6.10
2023-09-19T08:30:25.482Z,6.90
2023-09-19T08:33:02.555Z,5.70
2023-09-19T08:35:37.969Z,5.40
2023-09-19T08:38:06.151Z,4.60
2023-09-19T08:40:37.079Z,4.40
2023-09-19T08:43:04.968Z,5.10
2023-09-19T08:45:33.869Z,4.20
2023-09-19T08:48:15.229Z,4.70
2023-09-19T08:51:09.488Z,5.40
2023-09-19T08:53:47.579Z,4.40
2023-09-19T08:56:16.937Z,4.20
2023-09-19T08:58:56.429Z,4.40
2023-09-19T09:01:26.361Z,5.80
2023-09-19T09:03:54.280Z,4.90
2023-09-19T09:06:22.022Z,4.80
2023-09-19T09:08:49.448Z,4.90
2023-09-19T09:11:18.276Z,4.10
2023-09-19T09:13:47.347Z,4.80
2023-09-19T09:16:19.849Z,5.00
2023-09-19T09:18:54.419Z,4.40
2023-09-19T09:21:29.344Z,4.50
2023-09-19T09:23:56.753Z,4.30
2023-09-19T09:26:42.223Z,4.60
2023-09-19T09:29:09.750Z,4.00
2023-09-19T09:31:39.306Z,5.30
2023-09-19T09:34:07.716Z,4.70
2023-09-19T09:36:40.323Z,4.50
2023-09-19T09:39:25.887Z,4.30
2023-09-19T09:41:53.427Z,4.10
2023-09-19T09:44:21.019Z,4.80
2023-09-19T09:49:28.292Z,4.40
2023-09-19T09:52:10.802Z,4.60
2023-09-19T09:54:38.943Z,5.40
2023-09-19T09:57:21.309Z,4.00
2023-09-19T09:59:50.405Z,4.60
2023-09-19T10:02:26.030Z,4.60
2023-09-19T10:04:59.459Z,4.40
2023-09-19T10:07:33.469Z,4.80
2023-09-19T10:10:10.465Z,4.10
2023-09-19T10:12:44.078Z,4.60
2023-09-19T10:15:11.723Z,4.50
2023-09-19T10:17:38.368Z,4.00
2023-09-19T10:20:18.007Z,3.70
2023-09-19T10:22:44.667Z,4.40
2023-09-19T10:25:13.003Z,4.60
2023-09-19T10:27:39.620Z,4.70
2023-09-19T10:30:08.923Z,4.30
2023-09-19T10:35:14.819Z,4.10
2023-09-19T10:37:41.976Z,4.20
2023-09-19T10:40:10.658Z,4.30
2023-09-19T10:43:21.618Z,4.50
2023-09-19T10:48:33.622Z,4.10
2023-09-19T10:51:23.872Z,4.20
2023-09-19T10:57:37.312Z,4.00
2023-09-19T11:00:28.307Z,4.70
2023-09-19T11:03:19.500Z,4.30
2023-09-19T11:06:16.561Z,4.10
2023-09-19T11:08:56.863Z,4.60
2023-09-19T11:11:57.868Z,4.60
2023-09-19T11:14:24.726Z,4.70
2023-09-19T11:17:17.940Z,4.60
2023-09-19T11:20:12.370Z,4.80
2023-09-19T11:22:59.038Z,4.20
2023-09-19T11:25:34.673Z,4.30
2023-09-19T11:28:06.157Z,4.80
2023-09-19T11:30:33.360Z,4.90
2023-09-19T11:33:24.036Z,4.40
2023-09-19T11:36:06.707Z,4.60
2023-09-19T11:38:46.006Z,4.00
2023-09-19T11:41:41.807Z,4.30
2023-09-19T11:44:11.207Z,5.20
2023-09-19T11:46:53.671Z,5.00
2023-09-19T11:51:52.389Z,4.80
2023-09-19T11:54:22.284Z,4.40
2023-09-19T11:56:51.755Z,4.00
2023-09-19T11:59:28.534Z,5.10
2023-09-19T12:01:59.990Z,4.70
2023-09-19T12:04:44.939Z,4.00
2023-09-19T12:07:19.950Z,4.90
2023-09-19T12:12:28.754Z,4.60
2023-09-19T12:14:59.851Z,4.80
2023-09-19T12:17:42.045Z,5.10
2023-09-19T12:20:18.334Z,4.60
2023-09-19T12:22:48.136Z,4.90
2023-09-19T12:25:17.783Z,4.60
2023-09-19T12:27:47.308Z,5.00
2023-09-19T12:32:50.626Z,5.10
2023-09-19T12:35:31.739Z,5.20
2023-09-19T12:38:00.632Z,5.00
2023-09-19T12:40:33.460Z,4.90
2023-09-19T12:43:01.249Z,4.60
2023-09-19T12:45:28.048Z,4.70
2023-09-19T12:48:34.763Z,4.90
2023-09-19T12:51:13.303Z,4.50
2023-09-19T12:53:46.015Z,5.00
2023-09-19T12:56:14.701Z,4.60
2023-09-19T12:58:55.889Z,4.80
2023-09-19T13:01:30.315Z,4.80
2023-09-19T13:04:28.528Z,5.20
2023-09-19T13:06:55.591Z,4.70
2023-09-19T13:09:26.775Z,5.20
2023-09-19T13:11:54.547Z,4.70
2023-09-19T13:14:25.688Z,4.80
2023-09-19T13:17:04.961Z,4.80
2023-09-19T13:19:55.282Z,5.00
2023-09-19T13:22:46.538Z,5.10
2023-09-19T13:25:23.485Z,5.50
2023-09-19T13:27:56.221Z,5.20
2023-09-19T13:30:25.714Z,4.90
2023-09-19T13:32:53.371Z,4.50
2023-09-19T13:35:20.186Z,4.50
2023-09-19T13:37:49.567Z,4.90
2023-09-19T13:40:16.339Z,5.50
2023-09-19T13:42:43.205Z,5.00
2023-09-19T13:45:13.307Z,4.50
2023-09-19T13:47:40.667Z,4.50
2023-09-19T13:50:08.379Z,4.60
2023-09-19T13:52:35.500Z,4.20
2023-09-19T13:55:02.337Z,4.90
2023-09-19T13:57:29.996Z,4.70
2023-09-19T13:59:56.843Z,4.80
2023-09-19T14:02:24.357Z,4.30
2023-09-19T14:04:54.399Z,4.20
2023-09-19T14:07:21.388Z,4.90
2023-09-19T14:09:48.249Z,4.90
2023-09-19T14:12:15.403Z,4.60
2023-09-19T14:14:42.690Z,5.10
2023-09-19T14:17:09.705Z,5.10
2023-09-19T14:19:37.556Z,4.60
2023-09-19T14:22:08.193Z,4.70
2023-09-19T14:24:35.448Z,4.80
2023-09-19T14:27:03.937Z,4.60
2023-09-19T14:29:31.766Z,5.10
2023-09-19T14:31:58.815Z,4.90
2023-09-19T14:34:25.823Z,4.90
2023-09-19T14:36:54.833Z,5.70
2023-09-19T14:39:21.431Z,4.90
2023-09-19T14:41:49.079Z,5.40
2023-09-19T14:44:18.973Z,5.10
2023-09-19T14:46:45.705Z,5.10
2023-09-19T14:49:12.591Z,4.90
2023-09-19T14:51:44.492Z,4.80
2023-09-19T14:54:11.110Z,5.00
2023-09-19T14:56:37.974Z,5.80
2023-09-19T14:59:05.127Z,5.50
2023-09-19T15:01:32.832Z,5.20
2023-09-19T15:04:01.534Z,5.10
2023-09-19T15:06:28.780Z,5.30
2023-09-19T15:08:55.867Z,5.00
2023-09-19T15:11:23.272Z,5.70
2023-09-19T15:13:51.948Z,5.60
2023-09-19T15:16:19.978Z,6.00
2023-09-19T15:18:48.466Z,5.10
2023-09-19T15:21:15.837Z,5.20
2023-09-19T15:23:43.314Z,5.60
2023-09-19T15:26:14.537Z,5.50
2023-09-19T15:28:41.857Z,5.70
2023-09-19T15:31:12.179Z,5.30
2023-09-19T15:33:39.066Z,5.20
2023-09-19T15:36:07.557Z,5.50
2023-09-19T15:39:06.340Z,6.30
2023-09-19T15:41:34.369Z,5.40
2023-09-19T15:44:01.940Z,5.30
2023-09-19T15:46:30.130Z,5.70
2023-09-19T15:48:57.402Z,5.90
2023-09-19T15:51:24.614Z,5.60
2023-09-19T15:53:53.222Z,6.10
2023-09-19T15:56:23.590Z,5.50
2023-09-19T15:58:51.340Z,6.20
2023-09-19T16:01:18.203Z,5.90
2023-09-19T16:03:49.743Z,5.90
2023-09-19T16:06:18.538Z,6.70
2023-09-19T16:08:49.279Z,6.30
2023-09-19T16:11:16.133Z,6.00
2023-09-19T16:13:43.219Z,5.50
2023-09-19T16:16:13.548Z,6.00
2023-09-19T16:18:40.376Z,5.80
2023-09-19T16:21:11.328Z,5.50
2023-09-19T16:23:38.555Z,6.80
2023-09-19T16:26:06.452Z,6.00
2023-09-19T16:28:34.848Z,5.90
2023-09-19T16:31:02.373Z,6.30
2023-09-19T16:33:30.034Z,5.80
2023-09-19T16:35:56.781Z,5.80
2023-09-19T16:38:24.767Z,6.90
2023-09-19T16:40:55.560Z,6.30
2023-09-19T16:43:23.007Z,5.50
2023-09-19T16:45:56.557Z,6.20
2023-09-19T16:48:23.987Z,6.90
2023-09-19T16:50:51.452Z,7.00
2023-09-19T16:53:18.696Z,7.50
2023-09-19T16:55:48.500Z,7.30
2023-09-19T16:58:15.570Z,7.10
2023-09-19T17:00:44.030Z,7.30
2023-09-19T17:03:13.232Z,7.30
2023-09-19T17:05:40.751Z,6.80
2023-09-19T17:08:07.797Z,7.00
2023-09-19T17:10:35.846Z,7.20
2023-09-19T17:13:06.009Z,6.80
2023-09-19T17:15:32.691Z,7.60
2023-09-19T17:17:59.871Z,7.50
2023-09-19T17:20:27.452Z,7.60
2023-09-19T17:22:54.957Z,6.80
2023-09-19T17:25:21.826Z,7.90
2023-09-19T17:27:48.537Z,7.60
2023-09-19T17:30:18.227Z,7.50
2023-09-19T17:32:45.451Z,7.20
2023-09-19T17:35:14.475Z,6.90
2023-09-19T17:37:41.678Z,7.40
2023-09-19T17:40:10.996Z,7.30
2023-09-19T17:42:38.368Z,7.40
2023-09-19T17:45:05.629Z,7.10
2023-09-19T17:47:33.317Z,7.40
2023-09-19T17:50:01.799Z,7.30
2023-09-19T17:52:29.618Z,7.50
2023-09-19T17:54:57.017Z,7.70
2023-09-19T17:57:23.841Z,7.50
2023-09-19T17:59:51.778Z,8.60
2023-09-19T18:02:18.539Z,7.00
2023-09-19T18:04:45.354Z,7.60
2023-09-19T18:07:12.037Z,7.50
2023-09-19T18:09:38.820Z,7.50
2023-09-19T18:12:06.337Z,7.30
2023-09-19T18:14:33.469Z,7.10
2023-09-19T18:17:00.378Z,6.90
2023-09-19T18:19:27.759Z,7.10
2023-09-19T18:21:55.242Z,6.90
2023-09-19T18:24:21.914Z,7.00
2023-09-19T18:26:48.511Z,7.20
2023-09-19T18:29:15.317Z,7.70
2023-09-19T18:31:42.153Z,7.20
2023-09-19T18:34:08.879Z,8.10
2023-09-19T18:36:37.240Z,7.60
2023-09-19T18:39:05.011Z,7.10
2023-09-19T18:41:34.521Z,7.60
2023-09-19T18:44:01.916Z,7.20
2023-09-19T18:46:31.403Z,7.70
2023-09-19T18:48:58.337Z,7.10
2023-09-19T18:51:25.939Z,7.20
2023-09-19T18:54:09.224Z,7.70
2023-09-19T18:56:37.979Z,7.60
2023-09-19T18:59:05.629Z,8.00
2023-09-19T19:01:34.063Z,7.90
2023-09-19T19:04:00.877Z,7.90
2023-09-19T19:06:27.897Z,8.00
2023-09-19T19:08:54.660Z,8.60
2023-09-19T19:11:23.178Z,8.30
2023-09-19T19:13:54.513Z,8.10
2023-09-19T19:16:21.509Z,8.60
2023-09-19T19:18:49.514Z,8.50
2023-09-19T19:21:17.013Z,7.90
2023-09-19T19:23:43.641Z,8.40
2023-09-19T19:26:11.680Z,8.30
2023-09-19T19:28:44.807Z,7.40
2023-09-19T19:31:11.839Z,7.60
2023-09-19T19:33:38.631Z,7.60
2023-09-19T19:36:06.997Z,7.70
2023-09-19T19:38:33.627Z,7.80
2023-09-19T19:41:01.289Z,8.20
2023-09-19T19:43:29.021Z,8.30
2023-09-19T19:45:59.999Z,7.20
2023-09-19T19:48:27.062Z,8.00
2023-09-19T19:50:56.821Z,8.60
2023-09-19T19:53:26.535Z,8.00
2023-09-19T19:55:53.248Z,8.80
2023-09-19T19:58:22.717Z,7.30
2023-09-19T20:00:52.963Z,7.80
2023-09-19T20:03:19.698Z,6.90
2023-09-19T20:05:48.708Z,6.80
2023-09-19T20:08:15.415Z,7.30
2023-09-19T20:10:41.949Z,7.00
2023-09-19T20:13:09.435Z,6.80
2023-09-19T20:15:38.400Z,7.20
2023-09-19T20:18:07.960Z,6.30
2023-09-19T20:20:34.603Z,6.90
2023-09-19T20:23:02.087Z,6.90
2023-09-19T20:25:28.749Z,6.50
2023-09-19T20:27:55.641Z,7.20
2023-09-19T20:30:23.521Z,6.50
2023-09-19T20:32:50.515Z,6.90
2023-09-19T20:35:17.127Z,6.60
2023-09-19T20:37:45.641Z,6.70
2023-09-19T20:40:12.410Z,6.30
2023-09-19T20:42:39.336Z,6.50
2023-09-19T20:45:07.226Z,6.70
2023-09-19T20:47:33.920Z,7.10
2023-09-19T20:50:00.737Z,6.80
2023-09-19T20:52:27.660Z,6.80
2023-09-19T20:54:54.333Z,6.40
2023-09-19T20:57:21.567Z,5.90
2023-09-19T20:59:48.167Z,5.90
2023-09-19T21:02:15.789Z,6.50
2023-09-19T21:04:42.535Z,7.00
2023-09-19T21:07:09.265Z,6.10
2023-09-19T21:09:36.155Z,6.20
2023-09-19T21:12:02.848Z,6.70
2023-09-19T21:14:33.158Z,6.40
2023-09-19T21:17:01.015Z,5.90
2023-09-19T21:19:29.230Z,6.50
2023-09-19T21:21:57.281Z,6.20
2023-09-19T21:24:27.031Z,6.30
2023-09-19T21:26:53.647Z,5.70
2023-09-19T21:29:20.202Z,6.40
2023-09-19T21:31:47.581Z,6.40
2023-09-19T21:34:14.840Z,5.60
2023-09-19T21:36:41.824Z,6.10
2023-09-19T21:39:08.757Z,6.20
2023-09-19T21:41:36.134Z,6.00
2023-09-19T21:44:03.191Z,6.20
2023-09-19T21:46:30.109Z,6.10
2023-09-19T21:49:03.658Z,6.10
2023-09-19T21:51:32.711Z,6.70
2023-09-19T21:54:02.649Z,5.80
2023-09-19T21:56:30.404Z,5.10
2023-09-19T21:58:57.121Z,5.90
2023-09-19T22:01:25.712Z,5.60
2023-09-19T22:06:49.923Z,5.80
2023-09-19T22:09:17.391Z,6.00
2023-09-19T22:11:44.746Z,6.30
2023-09-19T22:14:12.545Z,5.80
2023-09-19T22:16:40.030Z,5.80
2023-09-19T22:19:07.527Z,6.00
2023-09-19T22:21:38.557Z,5.70
2023-09-19T22:24:07.602Z,6.00
2023-09-19T22:26:37.050Z,6.10
2023-09-19T22:29:05.082Z,6.00
2023-09-19T22:31:37.335Z,6.00
2023-09-19T22:34:07.441Z,5.90
2023-09-19T22:36:40.707Z,6.00
2023-09-19T22:39:14.570Z,5.70
2023-09-19T22:41:41.902Z,5.50
2023-09-19T22:44:11.564Z,5.60
2023-09-19T22:46:39.409Z,5.60
2023-09-19T22:49:17.504Z,5.50
2023-09-19T22:51:53.344Z,6.00
2023-09-19T22:54:27.782Z,5.70
2023-09-19T22:56:55.546Z,5.40
2023-09-19T22:59:23.074Z,5.70
2023-09-19T23:01:51.882Z,5.70
2023-09-19T23:04:22.348Z,5.40
2023-09-19T23:06:54.726Z,6.10
2023-09-19T23:09:23.427Z,5.70
2023-09-19T23:12:11.609Z,5.50
2023-09-19T23:14:43.087Z,5.40
2023-09-19T23:17:15.623Z,5.50
2023-09-19T23:19:50.371Z,5.90
2023-09-19T23:22:17.890Z,5.40
2023-09-19T23:24:50.657Z,5.30
2023-09-19T23:27:25.165Z,6.00
2023-09-19T23:29:52.930Z,5.30
2023-09-19T23:32:20.579Z,5.40
2023-09-19T23:34:48.287Z,5.50
2023-09-19T23:37:16.118Z,5.50
2023-09-19T23:39:43.868Z,5.50
2023-09-19T23:42:13.779Z,5.30
2023-09-19T23:44:48.308Z,5.60
2023-09-19T23:47:19.449Z,5.70
2023-09-19T23:49:50.715Z,5.90
2023-09-19T23:52:19.477Z,5.70
2023-09-19T23:54:51.460Z,5.60
2023-09-19T23:57:19.110Z,5.70
2023-09-19T23:59:47.025Z,5.20
